createdAt,value
2018-03-22T00:00:03.962Z,1015.67
2018-03-22T00:01:57.240Z,1015.60
2018-03-22T00:02:57.148Z,1015.66
2018-03-22T00:04:50.515Z,1015.62
2018-03-22T00:05:50.333Z,1015.63
2018-03-22T00:07:43.610Z,1015.66
2018-03-22T00:08:43.517Z,1015.64
2018-03-22T00:10:36.772Z,1015.62
2018-03-22T00:11:36.702Z,1015.62
2018-03-22T00:13:29.976Z,1015.59
2018-03-22T00:14:29.884Z,1015.60
2018-03-22T00:16:23.253Z,1015.56
2018-03-22T00:17:23.068Z,1015.56
2018-03-22T00:19:16.346Z,1015.46
2018-03-22T00:20:16.254Z,1015.48
2018-03-22T00:22:09.537Z,1015.50
2018-03-22T00:23:09.439Z,1015.45
2018-03-22T00:25:02.697Z,1015.38
2018-03-22T00:26:02.622Z,1015.33
2018-03-22T00:27:55.899Z,1015.24
2018-03-22T00:28:55.808Z,1015.33
2018-03-22T00:30:48.676Z,1015.29
2018-03-22T00:31:48.494Z,1015.23
2018-03-22T00:33:41.770Z,1015.22
2018-03-22T00:34:41.676Z,1015.20
2018-03-22T00:36:34.924Z,1015.15
2018-03-22T00:37:34.852Z,1015.14
2018-03-22T00:39:28.127Z,1015.11
2018-03-22T00:40:28.035Z,1015.10
2018-03-22T00:42:21.292Z,1015.03
2018-03-22T00:43:21.220Z,1015.01
2018-03-22T00:45:14.611Z,1014.95
2018-03-22T00:46:14.406Z,1014.99
2018-03-22T00:48:07.791Z,1014.92
2018-03-22T00:49:07.590Z,1014.88
2018-03-22T00:51:01.955Z,1014.88
2018-03-22T00:52:01.773Z,1014.89
2018-03-22T00:53:56.046Z,1014.78
2018-03-22T00:54:55.954Z,1014.73
2018-03-22T00:56:49.220Z,1014.73
2018-03-22T00:57:49.129Z,1014.74
2018-03-22T00:59:42.386Z,1014.66
2018-03-22T01:00:42.314Z,1014.66
2018-03-22T01:02:35.707Z,1014.61
2018-03-22T01:03:35.497Z,1014.63
2018-03-22T01:05:28.749Z,1014.60
2018-03-22T01:06:28.682Z,1014.59
2018-03-22T01:08:21.955Z,1014.54
2018-03-22T01:09:21.865Z,1014.55
2018-03-22T01:11:15.140Z,1014.52
2018-03-22T01:12:15.050Z,1014.44
2018-03-22T01:14:08.418Z,1014.37
2018-03-22T01:15:08.234Z,1014.39
2018-03-22T01:17:01.502Z,1014.31
2018-03-22T01:18:01.411Z,1014.26
2018-03-22T01:19:54.779Z,1014.19
2018-03-22T01:20:54.597Z,1014.19
2018-03-22T01:22:47.871Z,1014.14
2018-03-22T01:23:47.780Z,1014.03
2018-03-22T01:25:41.045Z,1014.06
2018-03-22T01:26:40.964Z,1013.96
2018-03-22T01:28:34.241Z,1013.92
2018-03-22T01:29:34.150Z,1013.94
2018-03-22T01:31:27.425Z,1013.96
2018-03-22T01:32:27.334Z,1013.92
2018-03-22T01:34:20.590Z,1013.77
2018-03-22T01:35:20.518Z,1013.75
2018-03-22T01:37:14.904Z,1013.72
2018-03-22T01:38:14.692Z,1013.68
2018-03-22T01:40:08.949Z,1013.67
2018-03-22T01:41:08.874Z,1013.66
2018-03-22T01:43:02.148Z,1013.62
2018-03-22T01:44:02.059Z,1013.61
2018-03-22T01:45:55.314Z,1013.51
2018-03-22T01:46:55.244Z,1013.49
2018-03-22T01:48:48.630Z,1013.45
2018-03-22T01:49:48.434Z,1013.45
2018-03-22T01:51:41.814Z,1013.36
2018-03-22T01:52:41.612Z,1013.40
2018-03-22T01:54:34.868Z,1013.39
2018-03-22T01:55:34.795Z,1013.39
2018-03-22T01:57:28.061Z,1013.37
2018-03-22T01:58:27.971Z,1013.34
2018-03-22T02:00:21.340Z,1013.23
2018-03-22T02:01:21.157Z,1013.13
2018-03-22T02:03:14.430Z,1013.13
2018-03-22T02:04:14.342Z,1013.16
2018-03-22T02:06:07.599Z,1013.19
2018-03-22T02:07:07.527Z,1013.29
2018-03-22T02:09:01.911Z,1013.29
2018-03-22T02:10:01.713Z,1013.26
2018-03-22T02:11:54.991Z,1013.19
2018-03-22T02:12:54.893Z,1013.22
2018-03-22T02:14:48.151Z,1013.14
2018-03-22T02:15:48.079Z,1013.08
2018-03-22T02:17:41.353Z,1013.04
2018-03-22T02:18:41.262Z,1013.06
2018-03-22T02:20:34.519Z,1013.01
2018-03-22T02:21:34.447Z,1013.00
2018-03-22T02:23:27.832Z,1012.97
2018-03-22T02:24:27.632Z,1012.97
2018-03-22T02:26:20.889Z,1012.96
2018-03-22T02:27:20.816Z,1012.99
2018-03-22T02:29:14.208Z,1012.90
2018-03-22T02:30:14.006Z,1012.87
2018-03-22T02:32:07.277Z,1012.86
2018-03-22T02:33:07.187Z,1012.85
2018-03-22T02:35:00.447Z,1012.76
2018-03-22T02:36:00.376Z,1012.72
2018-03-22T02:37:53.762Z,1012.72
2018-03-22T02:38:53.560Z,1012.72
2018-03-22T02:40:46.823Z,1012.74
2018-03-22T02:41:46.743Z,1012.67
2018-03-22T02:43:40.131Z,1012.56
2018-03-22T02:44:39.928Z,1012.46
2018-03-22T02:46:33.296Z,1012.48
2018-03-22T02:47:33.111Z,1012.34
2018-03-22T02:49:26.382Z,1012.34
2018-03-22T02:50:26.290Z,1012.38
2018-03-22T02:52:19.567Z,1012.38
2018-03-22T02:53:19.474Z,1012.40
2018-03-22T02:55:12.734Z,1012.21
2018-03-22T02:56:12.660Z,1012.34
2018-03-22T02:58:05.937Z,1012.21
2018-03-22T02:59:05.845Z,1012.16
2018-03-22T03:00:59.214Z,1012.12
2018-03-22T03:01:59.029Z,1012.12
2018-03-22T03:03:52.327Z,1012.07
2018-03-22T03:04:52.236Z,1012.00
2018-03-22T03:06:45.486Z,1012.02
2018-03-22T03:07:45.411Z,1011.96
2018-03-22T03:09:38.686Z,1011.94
2018-03-22T03:10:38.598Z,1011.91
2018-03-22T03:12:31.985Z,1011.89
2018-03-22T03:13:31.779Z,1011.84
2018-03-22T03:15:25.037Z,1011.77
2018-03-22T03:16:24.963Z,1011.75
2018-03-22T03:18:18.238Z,1011.74
2018-03-22T03:19:18.148Z,1011.68
2018-03-22T03:21:11.408Z,1011.68
2018-03-22T03:22:11.332Z,1011.63
2018-03-22T03:24:04.608Z,1011.65
2018-03-22T03:25:04.515Z,1011.61
2018-03-22T03:26:57.784Z,1011.57
2018-03-22T03:27:57.696Z,1011.53
2018-03-22T03:29:50.966Z,1011.55
2018-03-22T03:30:50.877Z,1011.50
2018-03-22T03:32:44.151Z,1011.53
2018-03-22T03:33:44.063Z,1011.47
2018-03-22T03:35:37.321Z,1011.40
2018-03-22T03:36:37.246Z,1011.41
2018-03-22T03:38:30.521Z,1011.46
2018-03-22T03:39:30.434Z,1011.43
2018-03-22T03:41:23.695Z,1011.41
2018-03-22T03:42:23.617Z,1011.40
2018-03-22T03:44:17.001Z,1011.30
2018-03-22T03:45:16.803Z,1011.35
2018-03-22T03:47:10.200Z,1011.34
2018-03-22T03:48:09.979Z,1011.32
2018-03-22T03:50:04.308Z,1011.34
2018-03-22T03:51:04.236Z,1011.30
2018-03-22T03:52:57.622Z,1011.34
2018-03-22T03:53:57.420Z,1011.36
2018-03-22T03:55:50.789Z,1011.30
2018-03-22T03:56:50.602Z,1011.29
2018-03-22T03:58:43.877Z,1011.24
2018-03-22T03:59:43.788Z,1011.23
2018-03-22T04:01:37.043Z,1011.13
2018-03-22T04:02:36.973Z,1011.09
2018-03-22T04:04:30.325Z,1011.15
2018-03-22T04:05:30.235Z,1011.14
2018-03-22T04:07:23.510Z,1011.11
2018-03-22T04:08:23.408Z,1011.07
2018-03-22T04:10:16.775Z,1011.00
2018-03-22T04:11:16.591Z,1010.95
2018-03-22T04:13:09.865Z,1010.91
2018-03-22T04:14:09.774Z,1010.87
2018-03-22T04:16:03.030Z,1010.81
2018-03-22T04:17:02.958Z,1010.81
2018-03-22T04:18:56.343Z,1010.78
2018-03-22T04:19:56.140Z,1010.75
2018-03-22T04:21:49.395Z,1010.74
2018-03-22T04:22:49.323Z,1010.73
2018-03-22T04:24:42.597Z,1010.77
2018-03-22T04:25:42.506Z,1010.73
2018-03-22T04:27:35.892Z,1010.66
2018-03-22T04:28:35.689Z,1010.72
2018-03-22T04:30:29.061Z,1010.62
2018-03-22T04:31:28.872Z,1010.65
2018-03-22T04:33:22.150Z,1010.62
2018-03-22T04:34:22.058Z,1010.70
2018-03-22T04:36:15.425Z,1010.67
2018-03-22T04:37:15.241Z,1010.66
2018-03-22T04:39:09.632Z,1010.65
2018-03-22T04:40:09.423Z,1010.57
2018-03-22T04:42:02.796Z,1010.55
2018-03-22T04:43:02.606Z,1010.53
2018-03-22T04:44:55.880Z,1010.51
2018-03-22T04:45:55.788Z,1010.46
2018-03-22T04:47:49.061Z,1010.49
2018-03-22T04:48:48.972Z,1010.45
2018-03-22T04:50:42.310Z,1010.43
2018-03-22T04:51:42.237Z,1010.39
2018-03-22T04:53:35.513Z,1010.38
2018-03-22T04:54:35.419Z,1010.35
2018-03-22T04:56:28.787Z,1010.32
2018-03-22T04:57:28.597Z,1010.26
2018-03-22T04:59:22.978Z,1010.28
2018-03-22T05:00:22.776Z,1010.22
2018-03-22T05:02:17.031Z,1010.19
2018-03-22T05:03:16.957Z,1010.22
2018-03-22T05:05:10.341Z,1010.14
2018-03-22T05:06:10.139Z,1010.16
2018-03-22T05:08:03.415Z,1010.04
2018-03-22T05:09:03.324Z,1010.09
2018-03-22T05:10:56.578Z,1010.08
2018-03-22T05:11:56.503Z,1010.04
2018-03-22T05:13:49.780Z,1010.07
2018-03-22T05:14:49.686Z,1010.10
2018-03-22T05:16:42.934Z,1010.07
2018-03-22T05:17:42.859Z,1010.06
2018-03-22T05:19:36.133Z,1010.15
2018-03-22T05:20:36.040Z,1009.94
2018-03-22T05:22:29.406Z,1009.95
2018-03-22T05:23:29.223Z,1009.98
2018-03-22T05:25:22.497Z,1009.91
2018-03-22T05:26:22.405Z,1009.92
2018-03-22T05:28:15.677Z,1009.94
2018-03-22T05:29:15.586Z,1009.84
2018-03-22T05:31:08.842Z,1009.82
2018-03-22T05:32:08.771Z,1009.83
2018-03-22T05:34:03.040Z,1009.77
2018-03-22T05:35:02.948Z,1009.74
2018-03-22T05:36:56.194Z,1009.64
2018-03-22T05:37:56.120Z,1009.72
2018-03-22T05:39:49.413Z,1009.65
2018-03-22T05:40:49.299Z,1009.56
2018-03-22T05:42:42.669Z,1009.61
2018-03-22T05:43:42.487Z,1009.62
2018-03-22T05:45:35.755Z,1009.58
2018-03-22T05:46:35.665Z,1009.60
2018-03-22T05:48:28.970Z,1009.65
2018-03-22T05:49:28.845Z,1009.58
2018-03-22T05:51:22.105Z,1009.58
2018-03-22T05:52:22.026Z,1009.53
2018-03-22T05:54:15.413Z,1009.48
2018-03-22T05:55:15.206Z,1009.54
2018-03-22T05:57:08.573Z,1009.52
2018-03-22T05:58:08.377Z,1009.55
2018-03-22T06:00:01.652Z,1009.59
2018-03-22T06:01:01.560Z,1009.60
2018-03-22T06:02:54.814Z,1009.50
2018-03-22T06:03:54.741Z,1009.51
2018-03-22T06:05:48.126Z,1009.42
2018-03-22T06:06:47.923Z,1009.36
2018-03-22T06:08:42.197Z,1009.36
2018-03-22T06:09:42.102Z,1009.30
2018-03-22T06:11:35.467Z,1009.32
2018-03-22T06:12:35.285Z,1009.18
2018-03-22T06:14:28.594Z,1009.15
2018-03-22T06:15:28.510Z,1009.24
2018-03-22T06:17:21.759Z,1009.24
2018-03-22T06:18:21.691Z,1009.23
2018-03-22T06:20:15.071Z,1009.26
2018-03-22T06:21:14.866Z,1009.22
2018-03-22T06:23:08.120Z,1009.15
2018-03-22T06:24:08.049Z,1009.18
2018-03-22T06:26:01.320Z,1009.15
2018-03-22T06:27:01.229Z,1009.09
2018-03-22T06:28:54.506Z,1009.06
2018-03-22T06:29:54.407Z,1009.04
2018-03-22T06:31:47.774Z,1009.00
2018-03-22T06:32:47.600Z,1009.06
2018-03-22T06:34:40.972Z,1009.07
2018-03-22T06:35:40.772Z,1009.08
2018-03-22T06:37:34.024Z,1009.00
2018-03-22T06:38:33.951Z,1008.99
2018-03-22T06:40:27.337Z,1009.00
2018-03-22T06:41:27.129Z,1008.96
2018-03-22T06:43:20.385Z,1009.01
2018-03-22T06:44:20.313Z,1009.01
2018-03-22T06:46:13.696Z,1008.99
2018-03-22T06:47:13.494Z,1008.94
2018-03-22T06:49:06.932Z,1008.94
2018-03-22T06:50:06.674Z,1008.97
2018-03-22T06:51:59.933Z,1008.94
2018-03-22T06:52:59.856Z,1008.90
2018-03-22T06:54:53.130Z,1008.89
2018-03-22T06:55:53.037Z,1008.87
2018-03-22T06:57:46.309Z,1008.89
2018-03-22T06:58:46.237Z,1008.89
2018-03-22T07:00:39.620Z,1008.88
2018-03-22T07:01:39.405Z,1008.88
2018-03-22T07:03:32.650Z,1009.03
2018-03-22T07:04:32.576Z,1009.01
2018-03-22T07:06:25.839Z,1008.97
2018-03-22T07:07:25.747Z,1008.92
2018-03-22T07:09:19.019Z,1008.89
2018-03-22T07:10:18.921Z,1008.92
2018-03-22T07:12:12.165Z,1008.89
2018-03-22T07:13:12.092Z,1008.84
2018-03-22T07:15:05.355Z,1008.65
2018-03-22T07:16:05.262Z,1008.64
2018-03-22T07:17:58.510Z,1008.55
2018-03-22T07:18:58.436Z,1008.66
2018-03-22T07:20:51.698Z,1008.62
2018-03-22T07:21:51.606Z,1008.54
2018-03-22T07:23:44.974Z,1008.55
2018-03-22T07:24:44.777Z,1008.52
2018-03-22T07:26:38.163Z,1008.54
2018-03-22T07:27:37.954Z,1008.59
2018-03-22T07:29:31.215Z,1008.60
2018-03-22T07:30:31.131Z,1008.56
2018-03-22T07:32:24.367Z,1008.50
2018-03-22T07:33:24.292Z,1008.55
2018-03-22T07:35:17.556Z,1008.57
2018-03-22T07:36:17.464Z,1008.53
2018-03-22T07:38:10.710Z,1008.65
2018-03-22T07:39:10.636Z,1008.55
2018-03-22T07:41:04.021Z,1008.58
2018-03-22T07:42:03.808Z,1008.61
2018-03-22T07:43:57.052Z,1008.52
2018-03-22T07:44:57.011Z,1008.47
2018-03-22T07:46:50.243Z,1008.40
2018-03-22T07:47:50.152Z,1008.42
2018-03-22T07:49:43.535Z,1008.42
2018-03-22T07:50:43.326Z,1008.39
2018-03-22T07:52:36.650Z,1008.40
2018-03-22T07:53:36.501Z,1008.41
2018-03-22T07:55:29.888Z,1008.44
2018-03-22T07:56:29.675Z,1008.34
2018-03-22T07:58:22.917Z,1008.39
2018-03-22T07:59:22.841Z,1008.32
2018-03-22T08:01:16.107Z,1008.28
2018-03-22T08:02:16.014Z,1008.34
2018-03-22T08:04:09.260Z,1008.31
2018-03-22T08:05:09.187Z,1008.28
2018-03-22T08:07:02.455Z,1008.23
2018-03-22T08:08:02.361Z,1008.22
2018-03-22T08:09:55.624Z,1008.19
2018-03-22T08:10:55.533Z,1008.17
2018-03-22T08:12:48.782Z,1008.18
2018-03-22T08:13:48.707Z,1008.13
2018-03-22T08:15:41.980Z,1008.19
2018-03-22T08:16:41.875Z,1008.13
2018-03-22T08:18:35.123Z,1008.09
2018-03-22T08:19:35.048Z,1008.09
2018-03-22T08:21:28.435Z,1008.13
2018-03-22T08:22:28.237Z,1008.12
2018-03-22T08:24:21.481Z,1008.13
2018-03-22T08:25:21.429Z,1008.09
2018-03-22T08:27:14.672Z,1008.06
2018-03-22T08:28:14.585Z,1008.09
2018-03-22T08:30:07.966Z,1008.03
2018-03-22T08:31:07.754Z,1008.07
2018-03-22T08:33:00.999Z,1007.95
2018-03-22T08:34:00.927Z,1007.99
2018-03-22T08:35:54.311Z,1007.96
2018-03-22T08:36:54.098Z,1007.96
2018-03-22T08:38:47.466Z,1007.97
2018-03-22T08:39:47.270Z,1007.93
2018-03-22T08:41:40.657Z,1007.85
2018-03-22T08:42:40.441Z,1007.90
2018-03-22T08:44:33.809Z,1007.96
2018-03-22T08:45:33.615Z,1007.90
2018-03-22T08:47:26.881Z,1007.93
2018-03-22T08:48:26.790Z,1007.93
2018-03-22T08:50:20.053Z,1007.84
2018-03-22T08:51:19.964Z,1007.89
2018-03-22T08:53:13.215Z,1007.87
2018-03-22T08:54:13.136Z,1007.86
2018-03-22T08:56:06.520Z,1007.91
2018-03-22T08:57:06.308Z,1007.83
2018-03-22T08:58:59.676Z,1007.80
2018-03-22T08:59:59.479Z,1007.87
2018-03-22T09:01:52.744Z,1007.87
2018-03-22T09:02:52.779Z,1007.83
2018-03-22T09:04:45.899Z,1007.84
2018-03-22T09:05:45.826Z,1007.87
2018-03-22T09:07:39.212Z,1007.86
2018-03-22T09:08:38.998Z,1007.85
2018-03-22T09:10:32.326Z,1007.85
2018-03-22T09:11:32.235Z,1007.87
2018-03-22T09:13:25.478Z,1007.86
2018-03-22T09:14:25.430Z,1007.80
2018-03-22T09:16:18.792Z,1007.81
2018-03-22T09:17:18.579Z,1007.79
2018-03-22T09:19:11.947Z,1007.78
2018-03-22T09:20:11.753Z,1007.78
2018-03-22T09:22:05.020Z,1007.79
2018-03-22T09:23:04.927Z,1007.77
2018-03-22T09:24:58.175Z,1007.72
2018-03-22T09:25:58.100Z,1007.74
2018-03-22T09:27:51.448Z,1007.64
2018-03-22T09:28:51.283Z,1007.63
2018-03-22T09:30:44.548Z,1007.67
2018-03-22T09:31:44.459Z,1007.65
2018-03-22T09:33:37.704Z,1007.60
2018-03-22T09:34:37.633Z,1007.60
2018-03-22T09:36:31.019Z,1007.58
2018-03-22T09:37:30.811Z,1007.52
2018-03-22T09:39:24.054Z,1007.50
2018-03-22T09:40:23.985Z,1007.53
2018-03-22T09:42:17.248Z,1007.54
2018-03-22T09:43:17.159Z,1007.53
2018-03-22T09:45:10.407Z,1007.51
2018-03-22T09:46:10.334Z,1007.50
2018-03-22T09:48:03.725Z,1007.43
2018-03-22T09:49:03.511Z,1007.46
2018-03-22T09:50:57.398Z,1007.46
2018-03-22T09:51:56.688Z,1007.55
2018-03-22T09:53:49.935Z,1007.56
2018-03-22T09:54:49.864Z,1007.60
2018-03-22T09:56:43.130Z,1007.55
2018-03-22T09:57:43.039Z,1007.52
2018-03-22T09:59:36.313Z,1007.49
2018-03-22T10:00:36.240Z,1007.46
2018-03-22T10:02:29.503Z,1007.45
2018-03-22T10:03:29.413Z,1007.50
2018-03-22T10:05:22.782Z,1007.52
2018-03-22T10:06:22.590Z,1007.49
2018-03-22T10:08:15.976Z,1007.39
2018-03-22T10:09:15.766Z,1007.38
2018-03-22T10:11:09.042Z,1007.43
2018-03-22T10:12:08.951Z,1007.42
2018-03-22T10:14:02.199Z,1007.41
2018-03-22T10:15:02.127Z,1007.41
2018-03-22T10:16:55.561Z,1007.43
2018-03-22T10:17:55.305Z,1007.41
2018-03-22T10:19:48.686Z,1007.43
2018-03-22T10:20:48.482Z,1007.40
2018-03-22T10:22:41.754Z,1007.42
2018-03-22T10:23:41.658Z,1007.37
2018-03-22T10:25:35.908Z,1007.45
2018-03-22T10:26:35.836Z,1007.43
2018-03-22T10:28:29.225Z,1007.45
2018-03-22T10:29:29.014Z,1007.43
2018-03-22T10:31:22.330Z,1007.40
2018-03-22T10:32:22.246Z,1007.37
2018-03-22T10:34:15.610Z,1007.37
2018-03-22T10:35:15.446Z,1007.36
2018-03-22T10:37:08.841Z,1007.32
2018-03-22T10:38:08.628Z,1007.35
2018-03-22T10:40:01.875Z,1007.34
2018-03-22T10:41:01.803Z,1007.25
2018-03-22T10:42:55.073Z,1007.28
2018-03-22T10:43:55.031Z,1007.28
2018-03-22T10:45:48.309Z,1007.25
2018-03-22T10:46:48.240Z,1007.29
2018-03-22T10:48:41.507Z,1007.18
2018-03-22T10:49:42.101Z,1007.16
2018-03-22T10:51:34.807Z,1007.22
2018-03-22T10:52:34.599Z,1007.16
2018-03-22T10:54:27.970Z,1007.16
2018-03-22T10:55:27.788Z,1007.08
2018-03-22T10:57:21.055Z,1007.11
2018-03-22T10:58:20.971Z,1007.08
2018-03-22T11:00:14.341Z,1007.13
2018-03-22T11:01:14.150Z,1007.14
2018-03-22T11:03:06.951Z,1007.13
2018-03-22T11:04:06.861Z,1007.08
2018-03-22T11:06:00.125Z,1007.19
2018-03-22T11:07:00.047Z,1007.14
2018-03-22T11:08:53.319Z,1007.11
2018-03-22T11:09:53.230Z,1007.11
2018-03-22T11:11:46.501Z,1007.02
2018-03-22T11:12:46.412Z,1007.01
2018-03-22T11:14:39.787Z,1006.98
2018-03-22T11:15:39.595Z,1006.96
2018-03-22T11:17:32.865Z,1006.95
2018-03-22T11:18:32.798Z,1006.99
2018-03-22T11:20:26.150Z,1006.92
2018-03-22T11:21:25.961Z,1006.85
2018-03-22T11:23:19.257Z,1006.88
2018-03-22T11:24:19.153Z,1006.84
2018-03-22T11:26:12.399Z,1006.79
2018-03-22T11:27:12.328Z,1006.83
2018-03-22T11:29:05.602Z,1006.77
2018-03-22T11:30:05.518Z,1006.82
2018-03-22T11:31:58.805Z,1006.85
2018-03-22T11:32:58.701Z,1006.90
2018-03-22T11:34:51.963Z,1006.84
2018-03-22T11:35:51.894Z,1006.82
2018-03-22T11:37:45.191Z,1006.78
2018-03-22T11:38:45.083Z,1006.78
2018-03-22T11:40:38.332Z,1006.69
2018-03-22T11:41:38.262Z,1006.68
2018-03-22T11:43:31.536Z,1006.65
2018-03-22T11:44:31.449Z,1006.69
2018-03-22T11:46:24.842Z,1006.75
2018-03-22T11:47:24.633Z,1006.75
2018-03-22T11:49:18.024Z,1006.71
2018-03-22T11:50:17.818Z,1006.68
2018-03-22T11:52:11.207Z,1006.69
2018-03-22T11:53:11.003Z,1006.68
2018-03-22T11:55:05.265Z,1006.72
2018-03-22T11:56:05.196Z,1006.68
2018-03-22T11:57:58.467Z,1006.66
2018-03-22T11:58:58.379Z,1006.71
2018-03-22T12:00:51.788Z,1006.59
2018-03-22T12:01:51.618Z,1006.67
2018-03-22T12:03:44.833Z,1006.66
2018-03-22T12:04:44.766Z,1006.63
2018-03-22T12:06:38.004Z,1006.61
2018-03-22T12:07:37.930Z,1006.59
2018-03-22T12:09:31.229Z,1006.58
2018-03-22T12:10:31.114Z,1006.58
2018-03-22T12:12:24.386Z,1006.64
2018-03-22T12:13:24.297Z,1006.61
2018-03-22T12:15:17.554Z,1006.54
2018-03-22T12:16:17.481Z,1006.52
2018-03-22T12:18:10.870Z,1006.56
2018-03-22T12:19:10.665Z,1006.58
2018-03-22T12:21:04.038Z,1006.57
2018-03-22T12:22:03.851Z,1006.54
2018-03-22T12:23:57.122Z,1006.55
2018-03-22T12:24:57.035Z,1006.54
2018-03-22T12:26:50.316Z,1006.55
2018-03-22T12:27:50.246Z,1006.56
2018-03-22T12:29:43.516Z,1006.52
2018-03-22T12:30:43.431Z,1006.57
2018-03-22T12:32:36.702Z,1006.49
2018-03-22T12:33:36.615Z,1006.48
2018-03-22T12:35:29.989Z,1006.47
2018-03-22T12:36:29.798Z,1006.44
2018-03-22T12:38:23.203Z,1006.41
2018-03-22T12:39:22.986Z,1006.40
2018-03-22T12:41:16.315Z,1006.35
2018-03-22T12:42:16.246Z,1006.35
2018-03-22T12:44:09.639Z,1006.33
2018-03-22T12:45:09.435Z,1006.31
2018-03-22T12:47:02.694Z,1006.30
2018-03-22T12:48:02.626Z,1006.28
2018-03-22T12:49:55.918Z,1006.28
2018-03-22T12:50:55.814Z,1006.23
2018-03-22T12:52:49.207Z,1006.22
2018-03-22T12:53:49.000Z,1006.25
2018-03-22T12:55:42.378Z,1006.29
2018-03-22T12:56:42.245Z,1006.27
2018-03-22T12:58:35.641Z,1006.28
2018-03-22T12:59:35.436Z,1006.24
2018-03-22T13:01:28.803Z,1006.25
2018-03-22T13:02:28.621Z,1006.16
2018-03-22T13:04:21.898Z,1006.16
2018-03-22T13:05:21.807Z,1006.18
2018-03-22T13:07:16.067Z,1006.22
2018-03-22T13:08:16.001Z,1006.19
2018-03-22T13:10:09.271Z,1006.23
2018-03-22T13:11:09.187Z,1006.23
2018-03-22T13:13:02.469Z,1006.11
2018-03-22T13:14:02.381Z,1006.16
2018-03-22T13:15:55.753Z,1006.11
2018-03-22T13:16:55.579Z,1006.00
2018-03-22T13:18:48.968Z,1006.10
2018-03-22T13:19:48.773Z,1006.09
2018-03-22T13:21:42.036Z,1006.10
2018-03-22T13:22:41.975Z,1006.10
2018-03-22T13:24:35.252Z,1006.10
2018-03-22T13:25:35.165Z,1006.11
2018-03-22T13:27:28.537Z,1006.11
2018-03-22T13:28:28.354Z,1006.12
2018-03-22T13:30:21.744Z,1006.13
2018-03-22T13:31:21.549Z,1006.09
2018-03-22T13:33:14.839Z,1006.06
2018-03-22T13:34:14.744Z,1006.10
2018-03-22T13:36:08.617Z,1006.09
2018-03-22T13:37:08.133Z,1006.10
2018-03-22T13:39:01.388Z,1006.04
2018-03-22T13:40:00.964Z,1006.07
2018-03-22T13:41:55.215Z,1006.01
2018-03-22T13:42:55.147Z,1006.03
2018-03-22T13:44:49.419Z,1005.98
2018-03-22T13:45:49.331Z,1006.01
2018-03-22T13:47:43.586Z,1005.98
2018-03-22T13:48:43.516Z,1005.97
2018-03-22T13:50:36.787Z,1005.98
2018-03-22T13:51:36.702Z,1005.94
2018-03-22T13:53:29.974Z,1005.99
2018-03-22T13:54:29.890Z,1005.98
2018-03-22T13:56:23.260Z,1005.91
2018-03-22T13:57:23.166Z,1005.97
2018-03-22T13:59:16.497Z,1005.95
2018-03-22T14:00:16.362Z,1005.95
2018-03-22T14:02:09.534Z,1005.91
2018-03-22T14:03:09.474Z,1005.97
2018-03-22T14:05:02.740Z,1005.91
2018-03-22T14:06:02.654Z,1005.92
2018-03-22T14:07:56.026Z,1005.89
2018-03-22T14:08:55.839Z,1005.92
2018-03-22T14:10:49.110Z,1005.93
2018-03-22T14:11:49.025Z,1005.95
2018-03-22T14:13:42.417Z,1005.96
2018-03-22T14:14:42.242Z,1005.93
2018-03-22T14:16:35.497Z,1005.97
2018-03-22T14:17:35.429Z,1005.95
2018-03-22T14:19:28.822Z,1005.99
2018-03-22T14:20:28.612Z,1005.93
2018-03-22T14:22:21.986Z,1005.94
2018-03-22T14:23:21.799Z,1005.89
2018-03-22T14:25:15.074Z,1005.86
2018-03-22T14:26:14.979Z,1005.87
2018-03-22T14:28:08.357Z,1005.87
2018-03-22T14:29:08.243Z,1005.85
2018-03-22T14:31:02.633Z,1005.85
2018-03-22T14:32:02.451Z,1005.89
2018-03-22T14:33:55.751Z,1005.87
2018-03-22T14:34:55.673Z,1005.85
2018-03-22T14:36:48.912Z,1005.80
2018-03-22T14:37:48.856Z,1005.81
2018-03-22T14:39:42.118Z,1005.86
2018-03-22T14:40:42.056Z,1005.81
2018-03-22T14:42:35.285Z,1005.80
2018-03-22T14:43:35.215Z,1005.75
2018-03-22T14:45:28.502Z,1005.82
2018-03-22T14:46:28.415Z,1005.78
2018-03-22T14:48:21.789Z,1005.83
2018-03-22T14:49:21.621Z,1005.73
2018-03-22T14:51:14.990Z,1005.73
2018-03-22T14:52:14.784Z,1005.66
2018-03-22T14:54:08.087Z,1005.68
2018-03-22T14:55:08.002Z,1005.68
2018-03-22T14:57:01.275Z,1005.66
2018-03-22T14:58:01.185Z,1005.71
2018-03-22T14:59:54.454Z,1005.69
2018-03-22T15:00:54.372Z,1005.66
2018-03-22T15:02:48.621Z,1005.62
2018-03-22T15:03:48.551Z,1005.59
2018-03-22T15:05:41.916Z,1005.63
2018-03-22T15:06:41.734Z,1005.63
2018-03-22T15:08:35.017Z,1005.62
2018-03-22T15:09:34.923Z,1005.65
2018-03-22T15:11:28.298Z,1005.64
2018-03-22T15:12:28.113Z,1005.63
2018-03-22T15:14:21.513Z,1005.54
2018-03-22T15:15:21.296Z,1005.59
2018-03-22T15:17:15.547Z,1005.61
2018-03-22T15:18:15.471Z,1005.61
2018-03-22T15:20:08.749Z,1005.59
2018-03-22T15:21:08.660Z,1005.63
2018-03-22T15:23:01.915Z,1005.60
2018-03-22T15:24:01.845Z,1005.61
2018-03-22T15:25:55.237Z,1005.57
2018-03-22T15:26:55.029Z,1005.54
2018-03-22T15:28:48.351Z,1005.57
2018-03-22T15:29:48.242Z,1005.62
2018-03-22T15:31:41.614Z,1005.58
2018-03-22T15:32:41.423Z,1005.58
2018-03-22T15:34:34.697Z,1005.64
2018-03-22T15:35:34.610Z,1005.61
2018-03-22T15:37:27.881Z,1005.60
2018-03-22T15:38:27.814Z,1005.59
2018-03-22T15:40:21.113Z,1005.57
2018-03-22T15:41:20.998Z,1005.57
2018-03-22T15:43:14.316Z,1005.64
2018-03-22T15:44:14.242Z,1005.60
2018-03-22T15:46:07.629Z,1005.57
2018-03-22T15:47:07.423Z,1005.59
2018-03-22T15:49:00.695Z,1005.58
2018-03-22T15:50:00.608Z,1005.58
2018-03-22T15:51:53.979Z,1005.62
2018-03-22T15:52:53.794Z,1005.63
2018-03-22T15:54:47.068Z,1005.65
2018-03-22T15:55:46.974Z,1005.71
2018-03-22T15:57:40.346Z,1005.72
2018-03-22T15:58:40.244Z,1005.71
2018-03-22T16:00:33.598Z,1005.67
2018-03-22T16:01:33.424Z,1005.71
2018-03-22T16:03:26.797Z,1005.74
2018-03-22T16:04:26.611Z,1005.71
2018-03-22T16:06:20.043Z,1005.68
2018-03-22T16:07:19.794Z,1005.74
2018-03-22T16:09:13.064Z,1005.71
2018-03-22T16:10:12.976Z,1005.73
2018-03-22T16:12:06.315Z,1005.71
2018-03-22T16:13:06.245Z,1005.74
2018-03-22T16:15:00.635Z,1005.67
2018-03-22T16:16:00.428Z,1005.70
2018-03-22T16:17:54.800Z,1005.66
2018-03-22T16:18:54.609Z,1005.67
2018-03-22T16:20:47.999Z,1005.67
2018-03-22T16:21:47.793Z,1005.69
2018-03-22T16:23:41.164Z,1005.69
2018-03-22T16:24:40.978Z,1005.66
2018-03-22T16:26:34.371Z,1005.67
2018-03-22T16:27:34.237Z,1005.65
2018-03-22T16:29:27.443Z,1005.73
2018-03-22T16:30:27.356Z,1005.72
2018-03-22T16:32:21.612Z,1005.72
2018-03-22T16:33:21.541Z,1005.67
2018-03-22T16:35:14.812Z,1005.68
2018-03-22T16:36:14.784Z,1005.64
2018-03-22T16:38:07.973Z,1005.61
2018-03-22T16:39:07.907Z,1005.64
2018-03-22T16:41:01.179Z,1005.67
2018-03-22T16:42:01.096Z,1005.60
2018-03-22T16:43:54.466Z,1005.67
2018-03-22T16:44:54.330Z,1005.67
2018-03-22T16:46:47.621Z,1005.63
2018-03-22T16:47:47.509Z,1005.65
2018-03-22T16:49:40.880Z,1005.65
2018-03-22T16:50:40.679Z,1005.72
2018-03-22T16:52:33.942Z,1005.68
2018-03-22T16:53:33.891Z,1005.70
2018-03-22T16:55:28.142Z,1005.67
2018-03-22T16:56:28.052Z,1005.63
2018-03-22T16:58:22.337Z,1005.61
2018-03-22T16:59:22.246Z,1005.65
2018-03-22T17:01:15.522Z,1005.63
2018-03-22T17:02:15.432Z,1005.60
2018-03-22T17:04:08.684Z,1005.60
2018-03-22T17:05:08.614Z,1005.59
2018-03-22T17:07:02.006Z,1005.52
2018-03-22T17:08:01.814Z,1005.53
2018-03-22T17:09:55.090Z,1005.57
2018-03-22T17:10:55.003Z,1005.58
2018-03-22T17:12:48.421Z,1005.54
2018-03-22T17:13:48.184Z,1005.51
2018-03-22T17:15:41.457Z,1005.55
2018-03-22T17:16:41.369Z,1005.56
2018-03-22T17:18:34.632Z,1005.58
2018-03-22T17:19:34.563Z,1005.59
2018-03-22T17:21:27.835Z,1005.58
2018-03-22T17:22:27.769Z,1005.53
2018-03-22T17:24:20.998Z,1005.58
2018-03-22T17:25:20.931Z,1005.58
2018-03-22T17:27:14.204Z,1005.66